Allegheny County Airport
KAGC : now visible

Airfield :











YOU CAN JOIN US ON...

 
LOGIN :

Register | Disclaimer

   EN    FR    IT 

 









Legend :    VFR   Marginal VFR   IFR   Intensive IFR   Very Intensive IFR
Visi :
Ceiling :
>= 8 km
>= 3000ft
5 to 8 km
1000 to 3000 ft
1500m to 5 km
500 to 1000 ft
800 to 1500m
200 to 500 ft
< 800m
< 200 ft
Symbols :   Thunderstorms  Fog  Heavy snow  Heavy precipitations  Wind > 20 kt






- Airport Elevation : 1252 ft
- IATA code : AGC


KAGC - Allegheny County

CURRENT METAR :
  • 142133Z 28011G17KT 2SM -SN BR OVC007 01/01 A2952 RMK AO2 UPB06E14SNE06B14 P0001 T00110006

EXPIRED METARs :
  • 142122Z 29009G19KT 1 3/4SM -SN BR OVC007 01/01 A2951 RMK AO2 UPB06E14SNE06B14 CIG 004V010 P0001 T00110006
  • 142104Z 28010G16KT 3SM -SN BR OVC006 01/01 A2951 RMK AO2 CIG 005V011 P0000 T00110006
  • 142053Z 29010G17KT 2 1/2SM -SN BR OVC006 01/01 A2950 RMK AO2 UPB42E43SNE42B43 CIG 005V011 SLP001 P0002 60007 T00110006 53029
  • 141953Z 29008G16KT 270V330 3SM -SN BR OVC006 01/01 A2946 RMK AO2 CIG 005V011 SLP989 P0003 T00110006
  • 141853Z 30008G18KT 270V340 2 1/2SM -SN BR OVC007 01/01 A2944 RMK AO2 RAE41SNB41 SLP981 P0002 T00110006

TAF KAGC
Valid from the 14 at 18:00 until the 15 at 18:00 UTC


141734Z 1418/1518 29010KT 3SM -SN OVC008
FM150200 27011G20KT P6SM VCSH OVC010
FM151600 27005KT P6SM OVC025



MET'MAP, your aeronautical weather chart ! - Copyright ORBIFLY December 2007 - Disclaimer

ORBIFLY MET'MAP TEAM :

Programming & Development : Alexandra Zaïnal
Concept & original design : Baudouin d'Aumeries
Assistance for programming : Marc-Olivier Méhu
Technical & hardware support : Manuel Goepfert

Contact : metmap@orbifly.com




SOURCES & CREDITS :

   NOAA       Earth
Advisory